sensor_id;sensor_type;location;lat;lon;timestamp;P1;durP1;ratioP1;P2;durP2;ratioP2
54679;SDS011;40578;53.178;5.846;2023-06-22T00:00:49;25.95;;;22.05;;
54679;SDS011;40578;53.178;5.846;2023-06-22T00:03:17;26.25;;;22.05;;
54679;SDS011;40578;53.178;5.846;2023-06-22T00:05:43;32.45;;;22.98;;
54679;SDS011;40578;53.178;5.846;2023-06-22T00:08:10;34.78;;;23.85;;
54679;SDS011;40578;53.178;5.846;2023-06-22T00:10:35;29.30;;;24.27;;
54679;SDS011;40578;53.178;5.846;2023-06-22T00:13:01;26.73;;;22.97;;
54679;SDS011;40578;53.178;5.846;2023-06-22T00:15:27;26.80;;;21.80;;
54679;SDS011;40578;53.178;5.846;2023-06-22T00:17:53;29.55;;;22.05;;
54679;SDS011;40578;53.178;5.846;2023-06-22T00:20:19;28.17;;;23.47;;
54679;SDS011;40578;53.178;5.846;2023-06-22T00:22:45;30.37;;;23.10;;
54679;SDS011;40578;53.178;5.846;2023-06-22T00:25:11;30.27;;;24.13;;
54679;SDS011;40578;53.178;5.846;2023-06-22T00:27:36;28.38;;;23.75;;
54679;SDS011;40578;53.178;5.846;2023-06-22T00:30:02;30.13;;;24.87;;
54679;SDS011;40578;53.178;5.846;2023-06-22T00:32:28;31.50;;;27.02;;
54679;SDS011;40578;53.178;5.846;2023-06-22T00:34:54;31.43;;;26.67;;
54679;SDS011;40578;53.178;5.846;2023-06-22T00:37:20;35.30;;;27.33;;
54679;SDS011;40578;53.178;5.846;2023-06-22T00:39:50;31.35;;;26.33;;
54679;SDS011;40578;53.178;5.846;2023-06-22T00:42:16;32.90;;;27.33;;
54679;SDS011;40578;53.178;5.846;2023-06-22T00:44:42;33.17;;;26.60;;
54679;SDS011;40578;53.178;5.846;2023-06-22T00:47:10;28.70;;;24.48;;
54679;SDS011;40578;53.178;5.846;2023-06-22T00:49:38;23.92;;;21.48;;
54679;SDS011;40578;53.178;5.846;2023-06-22T00:52:04;21.53;;;19.07;;
54679;SDS011;40578;53.178;5.846;2023-06-22T00:54:37;20.20;;;18.05;;
54679;SDS011;40578;53.178;5.846;2023-06-22T00:57:03;20.83;;;18.83;;
54679;SDS011;40578;53.178;5.846;2023-06-22T00:59:29;21.67;;;19.42;;
54679;SDS011;40578;53.178;5.846;2023-06-22T01:01:57;24.33;;;20.70;;
54679;SDS011;40578;53.178;5.846;2023-06-22T01:04:24;25.00;;;22.40;;
54679;SDS011;40578;53.178;5.846;2023-06-22T01:07:10;27.73;;;22.45;;
54679;SDS011;40578;53.178;5.846;2023-06-22T01:10:02;26.08;;;22.80;;
54679;SDS011;40578;53.178;5.846;2023-06-22T01:12:53;25.92;;;22.58;;
54679;SDS011;40578;53.178;5.846;2023-06-22T01:15:34;40.80;;;24.25;;
54679;SDS011;40578;53.178;5.846;2023-06-22T01:18:04;28.10;;;22.52;;
54679;SDS011;40578;53.178;5.846;2023-06-22T01:20:30;27.25;;;22.00;;
54679;SDS011;40578;53.178;5.846;2023-06-22T01:23:02;27.10;;;22.98;;
54679;SDS011;40578;53.178;5.846;2023-06-22T01:25:46;31.45;;;23.38;;
54679;SDS011;40578;53.178;5.846;2023-06-22T01:31:20;25.48;;;22.73;;
54679;SDS011;40578;53.178;5.846;2023-06-22T01:33:51;25.50;;;22.20;;
54679;SDS011;40578;53.178;5.846;2023-06-22T01:36:19;26.70;;;22.35;;
54679;SDS011;40578;53.178;5.846;2023-06-22T01:38:48;28.52;;;24.52;;
54679;SDS011;40578;53.178;5.846;2023-06-22T01:41:14;30.23;;;26.55;;
54679;SDS011;40578;53.178;5.846;2023-06-22T01:43:41;28.17;;;25.27;;
54679;SDS011;40578;53.178;5.846;2023-06-22T01:46:08;30.60;;;25.77;;
54679;SDS011;40578;53.178;5.846;2023-06-22T01:48:36;27.45;;;24.48;;
54679;SDS011;40578;53.178;5.846;2023-06-22T01:51:03;27.48;;;24.35;;
54679;SDS011;40578;53.178;5.846;2023-06-22T01:53:29;29.17;;;25.53;;
54679;SDS011;40578;53.178;5.846;2023-06-22T01:55:55;29.93;;;25.60;;
54679;SDS011;40578;53.178;5.846;2023-06-22T01:58:22;25.77;;;23.05;;
54679;SDS011;40578;53.178;5.846;2023-06-22T02:00:53;24.08;;;21.45;;
54679;SDS011;40578;53.178;5.846;2023-06-22T02:03:23;24.65;;;22.05;;
54679;SDS011;40578;53.178;5.846;2023-06-22T02:05:56;26.45;;;21.70;;
54679;SDS011;40578;53.178;5.846;2023-06-22T02:08:32;22.75;;;20.38;;
54679;SDS011;40578;53.178;5.846;2023-06-22T02:13:31;24.42;;;20.80;;
54679;SDS011;40578;53.178;5.846;2023-06-22T02:18:23;25.70;;;22.88;;
54679;SDS011;40578;53.178;5.846;2023-06-22T02:20:50;25.98;;;20.85;;
54679;SDS011;40578;53.178;5.846;2023-06-22T02:23:15;23.70;;;21.23;;
54679;SDS011;40578;53.178;5.846;2023-06-22T02:25:41;26.23;;;23.43;;
54679;SDS011;40578;53.178;5.846;2023-06-22T02:28:09;28.88;;;22.85;;
54679;SDS011;40578;53.178;5.846;2023-06-22T02:30:35;32.67;;;25.37;;
54679;SDS011;40578;53.178;5.846;2023-06-22T02:33:00;29.70;;;24.90;;
54679;SDS011;40578;53.178;5.846;2023-06-22T02:35:27;37.77;;;25.37;;
54679;SDS011;40578;53.178;5.846;2023-06-22T02:37:57;27.88;;;24.23;;
54679;SDS011;40578;53.178;5.846;2023-06-22T02:40:24;27.13;;;24.10;;
54679;SDS011;40578;53.178;5.846;2023-06-22T02:42:50;28.43;;;24.20;;
54679;SDS011;40578;53.178;5.846;2023-06-22T02:45:16;49.60;;;26.83;;
54679;SDS011;40578;53.178;5.846;2023-06-22T02:47:41;39.53;;;27.20;;
54679;SDS011;40578;53.178;5.846;2023-06-22T02:50:07;33.53;;;27.83;;
54679;SDS011;40578;53.178;5.846;2023-06-22T02:52:33;32.95;;;27.17;;
54679;SDS011;40578;53.178;5.846;2023-06-22T02:54:59;30.60;;;26.87;;
54679;SDS011;40578;53.178;5.846;2023-06-22T02:57:25;33.58;;;29.70;;
54679;SDS011;40578;53.178;5.846;2023-06-22T02:59:50;36.77;;;29.30;;
54679;SDS011;40578;53.178;5.846;2023-06-22T03:02:16;31.87;;;27.13;;
54679;SDS011;40578;53.178;5.846;2023-06-22T03:04:42;34.72;;;29.67;;
54679;SDS011;40578;53.178;5.846;2023-06-22T03:07:08;34.40;;;28.87;;
54679;SDS011;40578;53.178;5.846;2023-06-22T03:09:34;34.97;;;27.43;;
54679;SDS011;40578;53.178;5.846;2023-06-22T03:11:59;38.33;;;29.23;;
54679;SDS011;40578;53.178;5.846;2023-06-22T03:14:29;83.85;;;32.03;;
54679;SDS011;40578;53.178;5.846;2023-06-22T03:16:55;47.63;;;31.20;;
54679;SDS011;40578;53.178;5.846;2023-06-22T03:19:26;43.33;;;31.80;;
54679;SDS011;40578;53.178;5.846;2023-06-22T03:21:54;39.75;;;30.60;;
54679;SDS011;40578;53.178;5.846;2023-06-22T03:24:20;56.55;;;30.30;;
54679;SDS011;40578;53.178;5.846;2023-06-22T03:26:45;62.50;;;30.33;;
54679;SDS011;40578;53.178;5.846;2023-06-22T03:29:12;59.13;;;29.80;;
54679;SDS011;40578;53.178;5.846;2023-06-22T03:31:37;69.43;;;29.75;;
54679;SDS011;40578;53.178;5.846;2023-06-22T03:34:03;84.37;;;29.17;;
54679;SDS011;40578;53.178;5.846;2023-06-22T03:36:28;99.60;;;31.03;;
54679;SDS011;40578;53.178;5.846;2023-06-22T03:38:54;85.03;;;29.80;;
54679;SDS011;40578;53.178;5.846;2023-06-22T03:41:20;105.90;;;31.30;;
54679;SDS011;40578;53.178;5.846;2023-06-22T03:43:45;87.60;;;31.27;;
54679;SDS011;40578;53.178;5.846;2023-06-22T03:46:11;51.10;;;30.57;;
54679;SDS011;40578;53.178;5.846;2023-06-22T03:48:37;34.27;;;29.70;;
54679;SDS011;40578;53.178;5.846;2023-06-22T03:51:03;34.78;;;30.30;;
54679;SDS011;40578;53.178;5.846;2023-06-22T03:53:29;32.43;;;28.53;;
54679;SDS011;40578;53.178;5.846;2023-06-22T03:55:55;33.67;;;28.33;;
54679;SDS011;40578;53.178;5.846;2023-06-22T03:58:21;36.15;;;30.95;;
54679;SDS011;40578;53.178;5.846;2023-06-22T04:00:47;34.77;;;29.70;;
54679;SDS011;40578;53.178;5.846;2023-06-22T04:03:14;34.20;;;30.48;;
54679;SDS011;40578;53.178;5.846;2023-06-22T04:05:40;34.13;;;29.75;;
54679;SDS011;40578;53.178;5.846;2023-06-22T04:08:06;36.03;;;30.63;;
54679;SDS011;40578;53.178;5.846;2023-06-22T04:10:32;35.58;;;30.25;;
54679;SDS011;40578;53.178;5.846;2023-06-22T04:12:58;32.50;;;28.73;;
54679;SDS011;40578;53.178;5.846;2023-06-22T04:15:24;32.50;;;28.87;;
54679;SDS011;40578;53.178;5.846;2023-06-22T04:17:50;31.83;;;28.33;;
54679;SDS011;40578;53.178;5.846;2023-06-22T04:20:15;32.40;;;28.87;;
54679;SDS011;40578;53.178;5.846;2023-06-22T04:22:41;31.80;;;28.20;;
54679;SDS011;40578;53.178;5.846;2023-06-22T04:25:07;29.83;;;26.63;;
54679;SDS011;40578;53.178;5.846;2023-06-22T04:27:33;31.80;;;28.30;;
54679;SDS011;40578;53.178;5.846;2023-06-22T04:30:05;32.15;;;28.23;;
54679;SDS011;40578;53.178;5.846;2023-06-22T04:32:32;30.08;;;26.48;;
54679;SDS011;40578;53.178;5.846;2023-06-22T04:35:01;30.92;;;27.58;;
54679;SDS011;40578;53.178;5.846;2023-06-22T04:37:29;29.02;;;25.90;;
54679;SDS011;40578;53.178;5.846;2023-06-22T04:39:55;31.45;;;28.05;;
54679;SDS011;40578;53.178;5.846;2023-06-22T04:42:21;30.60;;;27.10;;
54679;SDS011;40578;53.178;5.846;2023-06-22T04:44:46;30.60;;;26.00;;
54679;SDS011;40578;53.178;5.846;2023-06-22T04:47:12;29.63;;;26.47;;
54679;SDS011;40578;53.178;5.846;2023-06-22T04:49:37;29.60;;;26.60;;
54679;SDS011;40578;53.178;5.846;2023-06-22T04:52:06;29.27;;;26.15;;
54679;SDS011;40578;53.178;5.846;2023-06-22T04:54:32;30.48;;;27.30;;
54679;SDS011;40578;53.178;5.846;2023-06-22T04:57:00;31.10;;;27.90;;
54679;SDS011;40578;53.178;5.846;2023-06-22T04:59:30;32.58;;;28.33;;
54679;SDS011;40578;53.178;5.846;2023-06-22T05:01:56;32.10;;;28.58;;
54679;SDS011;40578;53.178;5.846;2023-06-22T05:04:23;30.98;;;27.55;;
54679;SDS011;40578;53.178;5.846;2023-06-22T05:06:50;33.45;;;29.20;;
54679;SDS011;40578;53.178;5.846;2023-06-22T05:09:16;30.63;;;26.42;;
54679;SDS011;40578;53.178;5.846;2023-06-22T05:11:42;31.17;;;27.55;;
54679;SDS011;40578;53.178;5.846;2023-06-22T05:14:08;32.97;;;27.10;;
54679;SDS011;40578;53.178;5.846;2023-06-22T05:16:34;32.40;;;27.50;;
54679;SDS011;40578;53.178;5.846;2023-06-22T05:21:28;28.07;;;24.97;;
54679;SDS011;40578;53.178;5.846;2023-06-22T05:23:55;29.15;;;25.92;;
54679;SDS011;40578;53.178;5.846;2023-06-22T05:26:25;37.45;;;26.13;;
54679;SDS011;40578;53.178;5.846;2023-06-22T05:28:51;27.77;;;24.70;;
54679;SDS011;40578;53.178;5.846;2023-06-22T05:31:17;28.33;;;23.70;;
54679;SDS011;40578;53.178;5.846;2023-06-22T05:33:45;29.13;;;24.15;;
54679;SDS011;40578;53.178;5.846;2023-06-22T05:36:12;29.23;;;24.83;;
54679;SDS011;40578;53.178;5.846;2023-06-22T05:38:38;28.48;;;25.10;;
54679;SDS011;40578;53.178;5.846;2023-06-22T05:41:05;27.85;;;24.73;;
54679;SDS011;40578;53.178;5.846;2023-06-22T05:43:31;29.25;;;24.77;;
54679;SDS011;40578;53.178;5.846;2023-06-22T05:45:57;26.98;;;23.95;;
54679;SDS011;40578;53.178;5.846;2023-06-22T05:48:23;31.00;;;24.88;;
54679;SDS011;40578;53.178;5.846;2023-06-22T05:50:49;27.27;;;24.27;;
54679;SDS011;40578;53.178;5.846;2023-06-22T05:53:15;30.47;;;24.70;;
54679;SDS011;40578;53.178;5.846;2023-06-22T05:55:40;27.67;;;24.80;;
54679;SDS011;40578;53.178;5.846;2023-06-22T05:58:06;30.40;;;25.63;;
54679;SDS011;40578;53.178;5.846;2023-06-22T06:00:32;29.40;;;26.17;;
54679;SDS011;40578;53.178;5.846;2023-06-22T06:02:58;29.73;;;24.65;;
54679;SDS011;40578;53.178;5.846;2023-06-22T06:05:28;27.27;;;23.83;;
54679;SDS011;40578;53.178;5.846;2023-06-22T06:07:54;32.55;;;24.77;;
54679;SDS011;40578;53.178;5.846;2023-06-22T06:10:20;29.87;;;25.60;;
54679;SDS011;40578;53.178;5.846;2023-06-22T06:12:45;27.13;;;23.30;;
54679;SDS011;40578;53.178;5.846;2023-06-22T06:15:11;30.97;;;25.63;;
54679;SDS011;40578;53.178;5.846;2023-06-22T06:17:44;28.07;;;24.80;;
54679;SDS011;40578;53.178;5.846;2023-06-22T06:22:40;31.92;;;25.58;;
54679;SDS011;40578;53.178;5.846;2023-06-22T06:25:07;29.85;;;24.20;;
54679;SDS011;40578;53.178;5.846;2023-06-22T06:27:33;29.48;;;26.05;;
54679;SDS011;40578;53.178;5.846;2023-06-22T06:29:59;32.77;;;25.73;;
54679;SDS011;40578;53.178;5.846;2023-06-22T06:32:25;29.27;;;26.03;;
54679;SDS011;40578;53.178;5.846;2023-06-22T06:34:50;31.73;;;25.80;;
54679;SDS011;40578;53.178;5.846;2023-06-22T06:37:16;30.53;;;27.07;;
54679;SDS011;40578;53.178;5.846;2023-06-22T06:39:43;32.28;;;27.60;;
54679;SDS011;40578;53.178;5.846;2023-06-22T06:42:10;31.33;;;26.33;;
54679;SDS011;40578;53.178;5.846;2023-06-22T06:44:36;29.33;;;25.98;;
54679;SDS011;40578;53.178;5.846;2023-06-22T06:47:03;30.58;;;26.83;;
54679;SDS011;40578;53.178;5.846;2023-06-22T06:49:29;28.25;;;25.20;;
54679;SDS011;40578;53.178;5.846;2023-06-22T06:51:55;28.67;;;25.35;;
54679;SDS011;40578;53.178;5.846;2023-06-22T06:54:21;28.70;;;24.80;;
54679;SDS011;40578;53.178;5.846;2023-06-22T06:56:47;28.77;;;25.67;;
54679;SDS011;40578;53.178;5.846;2023-06-22T06:59:14;32.92;;;28.15;;
54679;SDS011;40578;53.178;5.846;2023-06-22T07:01:41;30.42;;;26.70;;
54679;SDS011;40578;53.178;5.846;2023-06-22T07:04:09;33.22;;;27.25;;
54679;SDS011;40578;53.178;5.846;2023-06-22T07:06:35;33.67;;;28.35;;
54679;SDS011;40578;53.178;5.846;2023-06-22T07:09:01;31.07;;;27.67;;
54679;SDS011;40578;53.178;5.846;2023-06-22T07:11:26;33.53;;;28.97;;
54679;SDS011;40578;53.178;5.846;2023-06-22T07:13:52;33.60;;;30.00;;
54679;SDS011;40578;53.178;5.846;2023-06-22T07:16:17;31.63;;;28.27;;
54679;SDS011;40578;53.178;5.846;2023-06-22T07:18:43;31.80;;;26.67;;
54679;SDS011;40578;53.178;5.846;2023-06-22T07:21:09;31.17;;;26.27;;
54679;SDS011;40578;53.178;5.846;2023-06-22T07:23:34;31.30;;;27.47;;
54679;SDS011;40578;53.178;5.846;2023-06-22T07:26:00;33.83;;;26.67;;
54679;SDS011;40578;53.178;5.846;2023-06-22T07:28:31;28.42;;;24.45;;
54679;SDS011;40578;53.178;5.846;2023-06-22T07:31:02;27.77;;;23.40;;
54679;SDS011;40578;53.178;5.846;2023-06-22T07:33:28;27.77;;;22.42;;
54679;SDS011;40578;53.178;5.846;2023-06-22T07:35:54;24.97;;;20.97;;
54679;SDS011;40578;53.178;5.846;2023-06-22T07:38:20;23.83;;;20.13;;
54679;SDS011;40578;53.178;5.846;2023-06-22T07:40:45;20.73;;;17.20;;
54679;SDS011;40578;53.178;5.846;2023-06-22T07:43:12;22.35;;;19.45;;
54679;SDS011;40578;53.178;5.846;2023-06-22T07:45:38;22.83;;;18.87;;
54679;SDS011;40578;53.178;5.846;2023-06-22T07:48:07;22.85;;;20.33;;
54679;SDS011;40578;53.178;5.846;2023-06-22T07:50:33;22.10;;;19.48;;
54679;SDS011;40578;53.178;5.846;2023-06-22T07:52:58;21.00;;;18.47;;
54679;SDS011;40578;53.178;5.846;2023-06-22T07:55:24;22.50;;;18.42;;
54679;SDS011;40578;53.178;5.846;2023-06-22T07:57:50;23.60;;;19.33;;
54679;SDS011;40578;53.178;5.846;2023-06-22T08:00:17;21.58;;;18.50;;
54679;SDS011;40578;53.178;5.846;2023-06-22T08:02:44;19.80;;;17.60;;
54679;SDS011;40578;53.178;5.846;2023-06-22T08:05:11;25.33;;;20.42;;
54679;SDS011;40578;53.178;5.846;2023-06-22T08:07:38;22.98;;;20.27;;
54679;SDS011;40578;53.178;5.846;2023-06-22T08:10:04;22.63;;;19.23;;
54679;SDS011;40578;53.178;5.846;2023-06-22T08:12:30;20.58;;;17.63;;
54679;SDS011;40578;53.178;5.846;2023-06-22T08:14:56;22.27;;;18.70;;
54679;SDS011;40578;53.178;5.846;2023-06-22T08:17:23;19.48;;;17.38;;
54679;SDS011;40578;53.178;5.846;2023-06-22T08:19:49;20.10;;;16.58;;
54679;SDS011;40578;53.178;5.846;2023-06-22T08:22:15;25.83;;;20.90;;
54679;SDS011;40578;53.178;5.846;2023-06-22T08:24:41;19.20;;;16.83;;
54679;SDS011;40578;53.178;5.846;2023-06-22T08:27:07;20.90;;;17.57;;
54679;SDS011;40578;53.178;5.846;2023-06-22T08:29:41;22.45;;;19.75;;
54679;SDS011;40578;53.178;5.846;2023-06-22T08:32:08;21.27;;;16.15;;
54679;SDS011;40578;53.178;5.846;2023-06-22T08:34:34;16.17;;;13.30;;
54679;SDS011;40578;53.178;5.846;2023-06-22T08:37:01;19.92;;;15.40;;
54679;SDS011;40578;53.178;5.846;2023-06-22T08:39:26;19.53;;;15.30;;
54679;SDS011;40578;53.178;5.846;2023-06-22T08:41:52;18.75;;;14.98;;
54679;SDS011;40578;53.178;5.846;2023-06-22T08:44:18;16.07;;;13.60;;
54679;SDS011;40578;53.178;5.846;2023-06-22T08:46:44;17.75;;;14.13;;
54679;SDS011;40578;53.178;5.846;2023-06-22T08:49:10;17.17;;;14.88;;
54679;SDS011;40578;53.178;5.846;2023-06-22T08:51:36;14.10;;;11.33;;
54679;SDS011;40578;53.178;5.846;2023-06-22T08:54:01;15.97;;;13.23;;
54679;SDS011;40578;53.178;5.846;2023-06-22T08:56:27;12.10;;;10.90;;
54679;SDS011;40578;53.178;5.846;2023-06-22T08:58:53;16.97;;;13.27;;
54679;SDS011;40578;53.178;5.846;2023-06-22T09:01:18;16.33;;;13.07;;
54679;SDS011;40578;53.178;5.846;2023-06-22T09:03:44;14.50;;;12.97;;
54679;SDS011;40578;53.178;5.846;2023-06-22T09:06:18;14.02;;;12.50;;
54679;SDS011;40578;53.178;5.846;2023-06-22T09:08:45;14.60;;;11.32;;
54679;SDS011;40578;53.178;5.846;2023-06-22T09:11:11;10.95;;;8.75;;
54679;SDS011;40578;53.178;5.846;2023-06-22T09:13:37;14.30;;;11.13;;
54679;SDS011;40578;53.178;5.846;2023-06-22T09:16:02;12.60;;;10.90;;
54679;SDS011;40578;53.178;5.846;2023-06-22T09:18:28;15.33;;;12.70;;
54679;SDS011;40578;53.178;5.846;2023-06-22T09:20:54;15.60;;;10.33;;
54679;SDS011;40578;53.178;5.846;2023-06-22T09:23:19;16.43;;;12.90;;
54679;SDS011;40578;53.178;5.846;2023-06-22T09:25:45;14.90;;;11.80;;
54679;SDS011;40578;53.178;5.846;2023-06-22T09:28:12;13.90;;;10.52;;
54679;SDS011;40578;53.178;5.846;2023-06-22T09:30:39;17.75;;;14.05;;
54679;SDS011;40578;53.178;5.846;2023-06-22T09:33:04;12.83;;;10.63;;
54679;SDS011;40578;53.178;5.846;2023-06-22T09:35:30;12.30;;;9.97;;
54679;SDS011;40578;53.178;5.846;2023-06-22T09:37:55;15.47;;;11.70;;
54679;SDS011;40578;53.178;5.846;2023-06-22T09:40:21;14.40;;;12.57;;
54679;SDS011;40578;53.178;5.846;2023-06-22T09:42:47;16.00;;;11.83;;
54679;SDS011;40578;53.178;5.846;2023-06-22T09:45:12;16.57;;;13.57;;
54679;SDS011;40578;53.178;5.846;2023-06-22T09:47:38;20.40;;;14.07;;
54679;SDS011;40578;53.178;5.846;2023-06-22T09:50:04;15.13;;;12.37;;
54679;SDS011;40578;53.178;5.846;2023-06-22T09:52:30;13.77;;;11.23;;
54679;SDS011;40578;53.178;5.846;2023-06-22T09:54:56;14.20;;;10.77;;
54679;SDS011;40578;53.178;5.846;2023-06-22T09:57:21;10.50;;;9.30;;
54679;SDS011;40578;53.178;5.846;2023-06-22T09:59:47;12.60;;;8.63;;
54679;SDS011;40578;53.178;5.846;2023-06-22T10:02:13;10.97;;;7.93;;
54679;SDS011;40578;53.178;5.846;2023-06-22T10:04:38;12.73;;;8.15;;
54679;SDS011;40578;53.178;5.846;2023-06-22T10:09:31;13.35;;;8.07;;
54679;SDS011;40578;53.178;5.846;2023-06-22T10:11:56;10.27;;;8.40;;
54679;SDS011;40578;53.178;5.846;2023-06-22T10:14:22;8.13;;;6.50;;
54679;SDS011;40578;53.178;5.846;2023-06-22T10:16:52;9.15;;;7.57;;
54679;SDS011;40578;53.178;5.846;2023-06-22T10:19:17;16.58;;;12.05;;
54679;SDS011;40578;53.178;5.846;2023-06-22T10:21:43;13.27;;;11.25;;
54679;SDS011;40578;53.178;5.846;2023-06-22T10:24:09;11.17;;;8.77;;
54679;SDS011;40578;53.178;5.846;2023-06-22T10:26:35;10.48;;;8.07;;
54679;SDS011;40578;53.178;5.846;2023-06-22T10:29:01;9.52;;;7.22;;
54679;SDS011;40578;53.178;5.846;2023-06-22T10:31:28;9.30;;;7.28;;
54679;SDS011;40578;53.178;5.846;2023-06-22T10:33:54;14.13;;;8.25;;
54679;SDS011;40578;53.178;5.846;2023-06-22T10:36:23;6.90;;;5.95;;
54679;SDS011;40578;53.178;5.846;2023-06-22T10:38:49;10.05;;;8.10;;
54679;SDS011;40578;53.178;5.846;2023-06-22T10:41:18;9.25;;;7.78;;
54679;SDS011;40578;53.178;5.846;2023-06-22T10:43:44;10.07;;;8.40;;
54679;SDS011;40578;53.178;5.846;2023-06-22T10:46:09;11.63;;;9.30;;
54679;SDS011;40578;53.178;5.846;2023-06-22T10:48:35;10.47;;;8.83;;
54679;SDS011;40578;53.178;5.846;2023-06-22T10:51:00;12.00;;;10.80;;
54679;SDS011;40578;53.178;5.846;2023-06-22T10:53:26;13.63;;;12.23;;
54679;SDS011;40578;53.178;5.846;2023-06-22T10:55:52;13.70;;;11.57;;
54679;SDS011;40578;53.178;5.846;2023-06-22T10:58:18;13.45;;;11.80;;
54679;SDS011;40578;53.178;5.846;2023-06-22T11:00:44;12.43;;;11.00;;
54679;SDS011;40578;53.178;5.846;2023-06-22T11:03:10;12.85;;;10.70;;
54679;SDS011;40578;53.178;5.846;2023-06-22T11:05:37;13.43;;;11.77;;
54679;SDS011;40578;53.178;5.846;2023-06-22T11:08:02;14.43;;;12.03;;
54679;SDS011;40578;53.178;5.846;2023-06-22T11:10:28;12.57;;;10.70;;
54679;SDS011;40578;53.178;5.846;2023-06-22T11:12:54;13.73;;;12.33;;
54679;SDS011;40578;53.178;5.846;2023-06-22T11:17:46;12.13;;;10.68;;
54679;SDS011;40578;53.178;5.846;2023-06-22T11:20:11;12.30;;;11.00;;
54679;SDS011;40578;53.178;5.846;2023-06-22T11:22:37;12.25;;;10.35;;
54679;SDS011;40578;53.178;5.846;2023-06-22T11:25:04;16.35;;;12.75;;
54679;SDS011;40578;53.178;5.846;2023-06-22T11:27:31;11.38;;;9.55;;
54679;SDS011;40578;53.178;5.846;2023-06-22T11:29:56;12.65;;;9.65;;
54679;SDS011;40578;53.178;5.846;2023-06-22T11:32:22;13.10;;;10.90;;
54679;SDS011;40578;53.178;5.846;2023-06-22T11:34:48;12.80;;;11.25;;
54679;SDS011;40578;53.178;5.846;2023-06-22T11:37:14;11.85;;;9.40;;
54679;SDS011;40578;53.178;5.846;2023-06-22T11:39:40;10.45;;;8.65;;
54679;SDS011;40578;53.178;5.846;2023-06-22T11:42:06;9.55;;;7.93;;
54679;SDS011;40578;53.178;5.846;2023-06-22T11:46:58;9.88;;;7.93;;
54679;SDS011;40578;53.178;5.846;2023-06-22T11:49:25;10.73;;;7.53;;
54679;SDS011;40578;53.178;5.846;2023-06-22T11:51:51;13.85;;;9.15;;
54679;SDS011;40578;53.178;5.846;2023-06-22T11:54:17;10.63;;;8.52;;
54679;SDS011;40578;53.178;5.846;2023-06-22T11:56:43;9.63;;;8.63;;
54679;SDS011;40578;53.178;5.846;2023-06-22T11:59:08;8.88;;;7.00;;
54679;SDS011;40578;53.178;5.846;2023-06-22T12:01:34;9.95;;;6.50;;
54679;SDS011;40578;53.178;5.846;2023-06-22T12:04:00;10.13;;;7.50;;
54679;SDS011;40578;53.178;5.846;2023-06-22T12:06:25;9.87;;;8.07;;
54679;SDS011;40578;53.178;5.846;2023-06-22T12:08:51;9.00;;;7.82;;
54679;SDS011;40578;53.178;5.846;2023-06-22T12:11:16;9.70;;;7.37;;
54679;SDS011;40578;53.178;5.846;2023-06-22T12:13:42;9.77;;;7.13;;
54679;SDS011;40578;53.178;5.846;2023-06-22T12:16:08;7.57;;;6.77;;
54679;SDS011;40578;53.178;5.846;2023-06-22T12:18:33;9.02;;;8.10;;
54679;SDS011;40578;53.178;5.846;2023-06-22T12:20:59;9.13;;;7.60;;
54679;SDS011;40578;53.178;5.846;2023-06-22T12:23:24;8.87;;;6.60;;
54679;SDS011;40578;53.178;5.846;2023-06-22T12:25:50;8.77;;;6.00;;
54679;SDS011;40578;53.178;5.846;2023-06-22T12:28:16;8.03;;;5.80;;
54679;SDS011;40578;53.178;5.846;2023-06-22T12:30:42;7.25;;;6.05;;
54679;SDS011;40578;53.178;5.846;2023-06-22T12:33:07;6.32;;;5.30;;
54679;SDS011;40578;53.178;5.846;2023-06-22T12:35:33;7.47;;;5.30;;
54679;SDS011;40578;53.178;5.846;2023-06-22T12:40:25;6.13;;;4.55;;
54679;SDS011;40578;53.178;5.846;2023-06-22T12:42:50;7.00;;;4.67;;
54679;SDS011;40578;53.178;5.846;2023-06-22T12:45:16;6.43;;;4.53;;
54679;SDS011;40578;53.178;5.846;2023-06-22T12:47:42;5.80;;;4.67;;
54679;SDS011;40578;53.178;5.846;2023-06-22T12:50:08;7.18;;;4.63;;
54679;SDS011;40578;53.178;5.846;2023-06-22T12:52:36;5.90;;;4.38;;
54679;SDS011;40578;53.178;5.846;2023-06-22T12:55:04;6.07;;;4.38;;
54679;SDS011;40578;53.178;5.846;2023-06-22T12:57:29;5.88;;;4.53;;
54679;SDS011;40578;53.178;5.846;2023-06-22T12:59:55;6.30;;;4.70;;
54679;SDS011;40578;53.178;5.846;2023-06-22T13:02:21;7.10;;;4.40;;
54679;SDS011;40578;53.178;5.846;2023-06-22T13:04:46;4.57;;;3.60;;
54679;SDS011;40578;53.178;5.846;2023-06-22T13:07:12;5.13;;;3.80;;
54679;SDS011;40578;53.178;5.846;2023-06-22T13:09:37;5.10;;;3.35;;
54679;SDS011;40578;53.178;5.846;2023-06-22T13:12:03;5.07;;;3.20;;
54679;SDS011;40578;53.178;5.846;2023-06-22T13:14:29;4.93;;;3.40;;
54679;SDS011;40578;53.178;5.846;2023-06-22T13:16:55;5.20;;;3.40;;
54679;SDS011;40578;53.178;5.846;2023-06-22T13:19:20;3.97;;;2.83;;
54679;SDS011;40578;53.178;5.846;2023-06-22T13:21:46;4.13;;;2.95;;
54679;SDS011;40578;53.178;5.846;2023-06-22T13:24:12;4.10;;;2.42;;
54679;SDS011;40578;53.178;5.846;2023-06-22T13:26:37;5.17;;;2.10;;
54679;SDS011;40578;53.178;5.846;2023-06-22T13:29:04;3.13;;;1.90;;
54679;SDS011;40578;53.178;5.846;2023-06-22T13:31:29;3.30;;;1.83;;
54679;SDS011;40578;53.178;5.846;2023-06-22T13:33:55;3.13;;;1.70;;
54679;SDS011;40578;53.178;5.846;2023-06-22T13:36:20;3.27;;;1.47;;
54679;SDS011;40578;53.178;5.846;2023-06-22T13:38:48;3.53;;;1.92;;
54679;SDS011;40578;53.178;5.846;2023-06-22T13:41:14;2.95;;;1.88;;
54679;SDS011;40578;53.178;5.846;2023-06-22T13:43:39;2.57;;;1.60;;
54679;SDS011;40578;53.178;5.846;2023-06-22T13:46:05;4.70;;;2.10;;
54679;SDS011;40578;53.178;5.846;2023-06-22T13:48:31;3.90;;;2.00;;
54679;SDS011;40578;53.178;5.846;2023-06-22T13:50:56;4.07;;;2.25;;
54679;SDS011;40578;53.178;5.846;2023-06-22T13:53:24;3.28;;;2.10;;
54679;SDS011;40578;53.178;5.846;2023-06-22T13:55:49;6.10;;;2.40;;
54679;SDS011;40578;53.178;5.846;2023-06-22T13:58:15;3.50;;;2.00;;
54679;SDS011;40578;53.178;5.846;2023-06-22T14:00:41;3.93;;;1.70;;
54679;SDS011;40578;53.178;5.846;2023-06-22T14:03:06;3.13;;;1.70;;
54679;SDS011;40578;53.178;5.846;2023-06-22T14:05:32;3.33;;;1.40;;
54679;SDS011;40578;53.178;5.846;2023-06-22T14:07:58;2.93;;;1.57;;
54679;SDS011;40578;53.178;5.846;2023-06-22T14:10:23;3.43;;;1.40;;
54679;SDS011;40578;53.178;5.846;2023-06-22T14:12:49;4.80;;;2.00;;
54679;SDS011;40578;53.178;5.846;2023-06-22T14:15:14;3.13;;;1.87;;
54679;SDS011;40578;53.178;5.846;2023-06-22T14:17:40;4.13;;;1.93;;
54679;SDS011;40578;53.178;5.846;2023-06-22T14:20:06;3.47;;;1.80;;
54679;SDS011;40578;53.178;5.846;2023-06-22T14:22:33;4.35;;;1.67;;
54679;SDS011;40578;53.178;5.846;2023-06-22T14:25:00;4.53;;;1.40;;
54679;SDS011;40578;53.178;5.846;2023-06-22T14:27:26;2.78;;;1.60;;
54679;SDS011;40578;53.178;5.846;2023-06-22T14:29:52;2.97;;;1.48;;
54679;SDS011;40578;53.178;5.846;2023-06-22T14:32:18;3.40;;;1.60;;
54679;SDS011;40578;53.178;5.846;2023-06-22T14:34:43;3.13;;;1.70;;
54679;SDS011;40578;53.178;5.846;2023-06-22T14:37:10;2.97;;;1.83;;
54679;SDS011;40578;53.178;5.846;2023-06-22T14:39:35;2.50;;;1.65;;
54679;SDS011;40578;53.178;5.846;2023-06-22T14:42:01;3.63;;;1.63;;
54679;SDS011;40578;53.178;5.846;2023-06-22T14:44:28;4.00;;;1.65;;
54679;SDS011;40578;53.178;5.846;2023-06-22T14:46:54;3.15;;;1.80;;